sensor_id;sensor_type;location;lat;lon;timestamp;P1;durP1;ratioP1;P2;durP2;ratioP2
24663;SDS011;12791;50.992;13.788;2023-02-26T00:01:14;1.80;;;1.70;;
24663;SDS011;12791;50.992;13.788;2023-02-26T00:03:41;3.17;;;1.70;;
24663;SDS011;12791;50.992;13.788;2023-02-26T00:06:09;1.50;;;1.50;;
24663;SDS011;12791;50.992;13.788;2023-02-26T00:08:36;3.15;;;1.65;;
24663;SDS011;12791;50.992;13.788;2023-02-26T00:11:05;2.00;;;1.80;;
24663;SDS011;12791;50.992;13.788;2023-02-26T00:13:32;1.70;;;1.60;;
24663;SDS011;12791;50.992;13.788;2023-02-26T00:16:00;3.83;;;2.10;;
24663;SDS011;12791;50.992;13.788;2023-02-26T00:18:27;1.92;;;1.70;;
24663;SDS011;12791;50.992;13.788;2023-02-26T00:20:54;2.67;;;1.75;;
24663;SDS011;12791;50.992;13.788;2023-02-26T00:23:23;2.92;;;1.98;;
24663;SDS011;12791;50.992;13.788;2023-02-26T00:25:50;2.28;;;1.85;;
24663;SDS011;12791;50.992;13.788;2023-02-26T00:28:17;2.92;;;1.77;;
24663;SDS011;12791;50.992;13.788;2023-02-26T00:30:44;2.38;;;2.17;;
24663;SDS011;12791;50.992;13.788;2023-02-26T00:33:11;4.13;;;1.95;;
24663;SDS011;12791;50.992;13.788;2023-02-26T00:35:38;3.05;;;1.67;;
24663;SDS011;12791;50.992;13.788;2023-02-26T00:38:05;2.03;;;1.70;;
24663;SDS011;12791;50.992;13.788;2023-02-26T00:40:36;3.17;;;1.58;;
24663;SDS011;12791;50.992;13.788;2023-02-26T00:43:06;2.08;;;1.40;;
24663;SDS011;12791;50.992;13.788;2023-02-26T00:45:35;3.38;;;1.50;;
24663;SDS011;12791;50.992;13.788;2023-02-26T00:48:11;1.92;;;1.33;;
24663;SDS011;12791;50.992;13.788;2023-02-26T00:50:48;1.77;;;1.58;;
24663;SDS011;12791;50.992;13.788;2023-02-26T00:53:24;1.63;;;1.10;;
24663;SDS011;12791;50.992;13.788;2023-02-26T00:55:55;1.40;;;1.30;;
24663;SDS011;12791;50.992;13.788;2023-02-26T00:58:21;2.85;;;1.02;;
24663;SDS011;12791;50.992;13.788;2023-02-26T01:00:48;2.70;;;1.38;;
24663;SDS011;12791;50.992;13.788;2023-02-26T01:03:15;2.15;;;1.40;;
24663;SDS011;12791;50.992;13.788;2023-02-26T01:05:42;1.58;;;1.40;;
24663;SDS011;12791;50.992;13.788;2023-02-26T01:08:11;1.52;;;1.42;;
24663;SDS011;12791;50.992;13.788;2023-02-26T01:10:44;2.33;;;1.40;;
24663;SDS011;12791;50.992;13.788;2023-02-26T01:13:13;1.05;;;1.05;;
24663;SDS011;12791;50.992;13.788;2023-02-26T01:15:40;1.60;;;1.50;;
24663;SDS011;12791;50.992;13.788;2023-02-26T01:18:13;1.75;;;1.20;;
24663;SDS011;12791;50.992;13.788;2023-02-26T01:20:45;3.08;;;1.25;;
24663;SDS011;12791;50.992;13.788;2023-02-26T01:23:15;1.45;;;1.10;;
24663;SDS011;12791;50.992;13.788;2023-02-26T01:25:46;1.00;;;1.00;;
24663;SDS011;12791;50.992;13.788;2023-02-26T01:28:16;1.33;;;1.23;;
24663;SDS011;12791;50.992;13.788;2023-02-26T01:30:43;1.45;;;1.13;;
24663;SDS011;12791;50.992;13.788;2023-02-26T01:33:13;1.17;;;1.02;;
24663;SDS011;12791;50.992;13.788;2023-02-26T01:35:47;1.67;;;1.35;;
24663;SDS011;12791;50.992;13.788;2023-02-26T01:38:17;1.30;;;1.20;;
24663;SDS011;12791;50.992;13.788;2023-02-26T01:41:02;2.05;;;1.20;;
24663;SDS011;12791;50.992;13.788;2023-02-26T01:43:45;1.20;;;1.10;;
24663;SDS011;12791;50.992;13.788;2023-02-26T01:46:21;1.75;;;1.58;;
24663;SDS011;12791;50.992;13.788;2023-02-26T01:48:52;1.50;;;1.40;;
24663;SDS011;12791;50.992;13.788;2023-02-26T01:54:13;2.80;;;2.22;;
24663;SDS011;12791;50.992;13.788;2023-02-26T01:56:41;1.90;;;1.80;;
24663;SDS011;12791;50.992;13.788;2023-02-26T01:59:13;2.10;;;1.90;;
24663;SDS011;12791;50.992;13.788;2023-02-26T02:01:41;2.00;;;1.90;;
24663;SDS011;12791;50.992;13.788;2023-02-26T02:04:09;3.40;;;2.30;;
24663;SDS011;12791;50.992;13.788;2023-02-26T02:06:38;2.88;;;2.15;;
24663;SDS011;12791;50.992;13.788;2023-02-26T02:09:06;2.33;;;2.15;;
24663;SDS011;12791;50.992;13.788;2023-02-26T02:11:33;2.13;;;1.85;;
24663;SDS011;12791;50.992;13.788;2023-02-26T02:14:07;2.95;;;2.65;;
24663;SDS011;12791;50.992;13.788;2023-02-26T02:16:46;4.03;;;2.60;;
24663;SDS011;12791;50.992;13.788;2023-02-26T02:19:25;3.28;;;2.95;;
24663;SDS011;12791;50.992;13.788;2023-02-26T02:22:26;7.55;;;4.30;;
24663;SDS011;12791;50.992;13.788;2023-02-26T02:25:16;6.13;;;4.68;;
24663;SDS011;12791;50.992;13.788;2023-02-26T02:27:57;5.47;;;3.70;;
24663;SDS011;12791;50.992;13.788;2023-02-26T02:30:34;7.35;;;4.53;;
24663;SDS011;12791;50.992;13.788;2023-02-26T02:33:11;3.78;;;3.40;;
24663;SDS011;12791;50.992;13.788;2023-02-26T02:35:40;8.40;;;6.30;;
24663;SDS011;12791;50.992;13.788;2023-02-26T02:38:10;9.43;;;5.57;;
24663;SDS011;12791;50.992;13.788;2023-02-26T02:40:42;3.92;;;3.40;;
24663;SDS011;12791;50.992;13.788;2023-02-26T02:43:13;4.85;;;3.65;;
24663;SDS011;12791;50.992;13.788;2023-02-26T02:45:42;3.78;;;3.47;;
24663;SDS011;12791;50.992;13.788;2023-02-26T02:48:15;7.50;;;6.30;;
24663;SDS011;12791;50.992;13.788;2023-02-26T02:50:47;3.25;;;2.95;;
24663;SDS011;12791;50.992;13.788;2023-02-26T02:53:19;4.05;;;3.67;;
24663;SDS011;12791;50.992;13.788;2023-02-26T02:55:53;4.18;;;3.80;;
24663;SDS011;12791;50.992;13.788;2023-02-26T02:58:25;3.08;;;2.75;;
24663;SDS011;12791;50.992;13.788;2023-02-26T03:00:57;3.15;;;2.92;;
24663;SDS011;12791;50.992;13.788;2023-02-26T03:03:29;3.28;;;3.03;;
24663;SDS011;12791;50.992;13.788;2023-02-26T03:06:00;3.42;;;3.13;;
24663;SDS011;12791;50.992;13.788;2023-02-26T03:08:27;3.45;;;3.15;;
24663;SDS011;12791;50.992;13.788;2023-02-26T03:10:59;3.75;;;3.42;;
24663;SDS011;12791;50.992;13.788;2023-02-26T03:13:26;3.33;;;3.03;;
24663;SDS011;12791;50.992;13.788;2023-02-26T03:15:56;3.47;;;3.17;;
24663;SDS011;12791;50.992;13.788;2023-02-26T03:18:44;4.60;;;3.03;;
24663;SDS011;12791;50.992;13.788;2023-02-26T03:21:19;3.97;;;3.65;;
24663;SDS011;12791;50.992;13.788;2023-02-26T03:23:53;4.53;;;2.75;;
24663;SDS011;12791;50.992;13.788;2023-02-26T03:26:26;4.03;;;3.60;;
24663;SDS011;12791;50.992;13.788;2023-02-26T03:28:56;4.05;;;3.65;;
24663;SDS011;12791;50.992;13.788;2023-02-26T03:31:29;4.13;;;3.58;;
24663;SDS011;12791;50.992;13.788;2023-02-26T03:34:03;4.25;;;3.88;;
24663;SDS011;12791;50.992;13.788;2023-02-26T03:36:34;4.68;;;4.15;;
24663;SDS011;12791;50.992;13.788;2023-02-26T03:39:04;4.53;;;3.60;;
24663;SDS011;12791;50.992;13.788;2023-02-26T03:41:35;3.92;;;3.50;;
24663;SDS011;12791;50.992;13.788;2023-02-26T03:44:08;3.13;;;2.83;;
24663;SDS011;12791;50.992;13.788;2023-02-26T03:46:43;3.30;;;3.00;;
24663;SDS011;12791;50.992;13.788;2023-02-26T03:49:15;4.25;;;3.85;;
24663;SDS011;12791;50.992;13.788;2023-02-26T03:51:46;8.18;;;3.65;;
24663;SDS011;12791;50.992;13.788;2023-02-26T03:54:14;4.55;;;3.55;;
24663;SDS011;12791;50.992;13.788;2023-02-26T03:56:46;4.07;;;3.00;;
24663;SDS011;12791;50.992;13.788;2023-02-26T03:59:13;4.70;;;3.75;;
24663;SDS011;12791;50.992;13.788;2023-02-26T04:01:44;3.75;;;3.45;;
24663;SDS011;12791;50.992;13.788;2023-02-26T04:04:18;3.80;;;3.50;;
24663;SDS011;12791;50.992;13.788;2023-02-26T04:06:49;3.55;;;3.22;;
24663;SDS011;12791;50.992;13.788;2023-02-26T04:09:17;4.15;;;3.15;;
24663;SDS011;12791;50.992;13.788;2023-02-26T04:11:45;3.78;;;3.47;;
24663;SDS011;12791;50.992;13.788;2023-02-26T04:14:14;5.07;;;3.47;;
24663;SDS011;12791;50.992;13.788;2023-02-26T04:16:40;3.35;;;3.15;;
24663;SDS011;12791;50.992;13.788;2023-02-26T04:19:08;4.55;;;3.83;;
24663;SDS011;12791;50.992;13.788;2023-02-26T04:21:36;4.22;;;3.83;;
24663;SDS011;12791;50.992;13.788;2023-02-26T04:24:03;4.45;;;4.05;;
24663;SDS011;12791;50.992;13.788;2023-02-26T04:26:30;5.78;;;3.72;;
24663;SDS011;12791;50.992;13.788;2023-02-26T04:28:56;4.72;;;4.00;;
24663;SDS011;12791;50.992;13.788;2023-02-26T04:31:23;4.45;;;3.88;;
24663;SDS011;12791;50.992;13.788;2023-02-26T04:33:50;4.20;;;3.80;;
24663;SDS011;12791;50.992;13.788;2023-02-26T04:36:16;3.67;;;3.38;;
24663;SDS011;12791;50.992;13.788;2023-02-26T04:38:44;3.92;;;3.15;;
24663;SDS011;12791;50.992;13.788;2023-02-26T04:41:11;4.43;;;3.50;;
24663;SDS011;12791;50.992;13.788;2023-02-26T04:43:37;5.13;;;3.53;;
24663;SDS011;12791;50.992;13.788;2023-02-26T04:46:04;3.50;;;3.08;;
24663;SDS011;12791;50.992;13.788;2023-02-26T04:48:31;4.63;;;2.83;;
24663;SDS011;12791;50.992;13.788;2023-02-26T04:50:57;2.75;;;2.55;;
24663;SDS011;12791;50.992;13.788;2023-02-26T04:53:24;3.08;;;2.47;;
24663;SDS011;12791;50.992;13.788;2023-02-26T04:55:52;2.85;;;2.17;;
24663;SDS011;12791;50.992;13.788;2023-02-26T04:58:18;2.50;;;2.30;;
24663;SDS011;12791;50.992;13.788;2023-02-26T05:00:46;2.47;;;2.00;;
24663;SDS011;12791;50.992;13.788;2023-02-26T05:03:13;4.85;;;2.20;;
24663;SDS011;12791;50.992;13.788;2023-02-26T05:05:40;3.20;;;2.20;;
24663;SDS011;12791;50.992;13.788;2023-02-26T05:08:07;2.28;;;1.95;;
24663;SDS011;12791;50.992;13.788;2023-02-26T05:10:33;3.22;;;2.17;;
24663;SDS011;12791;50.992;13.788;2023-02-26T05:13:01;2.42;;;1.80;;
24663;SDS011;12791;50.992;13.788;2023-02-26T05:15:28;4.30;;;1.90;;
24663;SDS011;12791;50.992;13.788;2023-02-26T05:17:55;2.33;;;1.98;;
24663;SDS011;12791;50.992;13.788;2023-02-26T05:20:21;1.95;;;1.65;;
24663;SDS011;12791;50.992;13.788;2023-02-26T05:22:48;2.72;;;2.30;;
24663;SDS011;12791;50.992;13.788;2023-02-26T05:25:14;2.28;;;2.15;;
24663;SDS011;12791;50.992;13.788;2023-02-26T05:27:41;4.28;;;2.60;;
24663;SDS011;12791;50.992;13.788;2023-02-26T05:30:10;4.95;;;2.53;;
24663;SDS011;12791;50.992;13.788;2023-02-26T05:32:40;4.57;;;2.47;;
24663;SDS011;12791;50.992;13.788;2023-02-26T05:35:07;3.78;;;2.33;;
24663;SDS011;12791;50.992;13.788;2023-02-26T05:37:34;8.73;;;2.40;;
24663;SDS011;12791;50.992;13.788;2023-02-26T05:40:01;5.10;;;2.40;;
24663;SDS011;12791;50.992;13.788;2023-02-26T05:42:27;4.03;;;2.05;;
24663;SDS011;12791;50.992;13.788;2023-02-26T05:44:54;7.53;;;2.25;;
24663;SDS011;12791;50.992;13.788;2023-02-26T05:47:23;3.28;;;2.05;;
24663;SDS011;12791;50.992;13.788;2023-02-26T05:49:49;4.47;;;2.25;;
24663;SDS011;12791;50.992;13.788;2023-02-26T05:52:16;4.63;;;3.40;;
24663;SDS011;12791;50.992;13.788;2023-02-26T05:54:42;4.82;;;2.10;;
24663;SDS011;12791;50.992;13.788;2023-02-26T05:57:09;5.00;;;3.05;;
24663;SDS011;12791;50.992;13.788;2023-02-26T05:59:35;3.72;;;2.72;;
24663;SDS011;12791;50.992;13.788;2023-02-26T06:02:03;4.00;;;2.45;;
24663;SDS011;12791;50.992;13.788;2023-02-26T06:04:31;4.53;;;2.92;;
24663;SDS011;12791;50.992;13.788;2023-02-26T06:06:57;3.38;;;2.10;;
24663;SDS011;12791;50.992;13.788;2023-02-26T06:09:24;4.05;;;2.30;;
24663;SDS011;12791;50.992;13.788;2023-02-26T06:11:51;3.10;;;2.08;;
24663;SDS011;12791;50.992;13.788;2023-02-26T06:14:17;3.83;;;2.65;;
24663;SDS011;12791;50.992;13.788;2023-02-26T06:16:44;3.47;;;2.20;;
24663;SDS011;12791;50.992;13.788;2023-02-26T06:19:11;4.22;;;2.72;;
24663;SDS011;12791;50.992;13.788;2023-02-26T06:21:39;6.88;;;2.78;;
24663;SDS011;12791;50.992;13.788;2023-02-26T06:24:05;2.92;;;2.60;;
24663;SDS011;12791;50.992;13.788;2023-02-26T06:26:32;5.15;;;2.80;;
24663;SDS011;12791;50.992;13.788;2023-02-26T06:28:59;6.65;;;2.92;;
24663;SDS011;12791;50.992;13.788;2023-02-26T06:31:26;4.07;;;2.90;;
24663;SDS011;12791;50.992;13.788;2023-02-26T06:33:52;3.40;;;2.92;;
24663;SDS011;12791;50.992;13.788;2023-02-26T06:36:19;4.45;;;3.20;;
24663;SDS011;12791;50.992;13.788;2023-02-26T06:38:47;6.13;;;3.40;;
24663;SDS011;12791;50.992;13.788;2023-02-26T06:41:13;5.60;;;3.38;;
24663;SDS011;12791;50.992;13.788;2023-02-26T06:43:40;7.88;;;3.05;;
24663;SDS011;12791;50.992;13.788;2023-02-26T06:46:07;5.93;;;3.00;;
24663;SDS011;12791;50.992;13.788;2023-02-26T06:48:33;6.70;;;3.63;;
24663;SDS011;12791;50.992;13.788;2023-02-26T06:51:00;4.93;;;2.90;;
24663;SDS011;12791;50.992;13.788;2023-02-26T06:53:27;6.05;;;3.08;;
24663;SDS011;12791;50.992;13.788;2023-02-26T06:55:55;8.82;;;3.92;;
24663;SDS011;12791;50.992;13.788;2023-02-26T06:58:21;8.20;;;3.10;;
24663;SDS011;12791;50.992;13.788;2023-02-26T07:00:49;7.53;;;3.45;;
24663;SDS011;12791;50.992;13.788;2023-02-26T07:03:16;7.55;;;3.50;;
24663;SDS011;12791;50.992;13.788;2023-02-26T07:05:43;9.80;;;3.22;;
24663;SDS011;12791;50.992;13.788;2023-02-26T07:08:11;5.30;;;3.33;;
24663;SDS011;12791;50.992;13.788;2023-02-26T07:10:38;5.82;;;3.38;;
24663;SDS011;12791;50.992;13.788;2023-02-26T07:13:07;5.70;;;3.00;;
24663;SDS011;12791;50.992;13.788;2023-02-26T07:15:34;4.50;;;2.60;;
24663;SDS011;12791;50.992;13.788;2023-02-26T07:18:00;5.72;;;3.08;;
24663;SDS011;12791;50.992;13.788;2023-02-26T07:20:27;5.10;;;3.03;;
24663;SDS011;12791;50.992;13.788;2023-02-26T07:22:54;7.43;;;3.63;;
24663;SDS011;12791;50.992;13.788;2023-02-26T07:25:21;5.70;;;3.50;;
24663;SDS011;12791;50.992;13.788;2023-02-26T07:27:48;4.10;;;3.60;;
24663;SDS011;12791;50.992;13.788;2023-02-26T07:30:16;5.50;;;3.17;;
24663;SDS011;12791;50.992;13.788;2023-02-26T07:32:43;6.63;;;3.15;;
24663;SDS011;12791;50.992;13.788;2023-02-26T07:35:10;4.38;;;2.70;;
24663;SDS011;12791;50.992;13.788;2023-02-26T07:37:36;7.88;;;2.90;;
24663;SDS011;12791;50.992;13.788;2023-02-26T07:40:03;4.43;;;2.75;;
24663;SDS011;12791;50.992;13.788;2023-02-26T07:42:31;4.20;;;2.72;;
24663;SDS011;12791;50.992;13.788;2023-02-26T07:44:58;5.97;;;3.28;;
24663;SDS011;12791;50.992;13.788;2023-02-26T07:47:26;5.72;;;3.47;;
24663;SDS011;12791;50.992;13.788;2023-02-26T07:49:54;3.92;;;2.63;;
24663;SDS011;12791;50.992;13.788;2023-02-26T07:52:21;4.07;;;2.70;;
24663;SDS011;12791;50.992;13.788;2023-02-26T07:54:47;4.88;;;2.55;;
24663;SDS011;12791;50.992;13.788;2023-02-26T07:57:14;4.25;;;3.03;;
24663;SDS011;12791;50.992;13.788;2023-02-26T07:59:40;4.75;;;2.63;;
24663;SDS011;12791;50.992;13.788;2023-02-26T08:02:07;5.70;;;2.72;;
24663;SDS011;12791;50.992;13.788;2023-02-26T08:04:36;4.95;;;2.40;;
24663;SDS011;12791;50.992;13.788;2023-02-26T08:07:03;6.72;;;3.00;;
24663;SDS011;12791;50.992;13.788;2023-02-26T08:09:29;4.97;;;2.60;;
24663;SDS011;12791;50.992;13.788;2023-02-26T08:11:56;6.13;;;2.90;;
24663;SDS011;12791;50.992;13.788;2023-02-26T08:14:23;5.82;;;2.90;;
24663;SDS011;12791;50.992;13.788;2023-02-26T08:16:49;5.70;;;3.55;;
24663;SDS011;12791;50.992;13.788;2023-02-26T08:19:17;4.78;;;3.00;;
24663;SDS011;12791;50.992;13.788;2023-02-26T08:21:45;4.60;;;3.13;;
24663;SDS011;12791;50.992;13.788;2023-02-26T08:24:12;5.63;;;3.15;;
24663;SDS011;12791;50.992;13.788;2023-02-26T08:26:39;4.93;;;3.00;;
24663;SDS011;12791;50.992;13.788;2023-02-26T08:29:06;3.80;;;2.88;;
24663;SDS011;12791;50.992;13.788;2023-02-26T08:31:33;4.75;;;3.53;;
24663;SDS011;12791;50.992;13.788;2023-02-26T08:34:00;3.67;;;2.55;;
24663;SDS011;12791;50.992;13.788;2023-02-26T08:36:26;4.53;;;2.55;;
24663;SDS011;12791;50.992;13.788;2023-02-26T08:38:54;5.78;;;2.72;;
24663;SDS011;12791;50.992;13.788;2023-02-26T08:41:21;4.80;;;2.75;;
24663;SDS011;12791;50.992;13.788;2023-02-26T08:43:48;4.72;;;2.67;;
24663;SDS011;12791;50.992;13.788;2023-02-26T08:46:15;3.25;;;2.15;;
24663;SDS011;12791;50.992;13.788;2023-02-26T08:48:41;3.20;;;1.90;;
24663;SDS011;12791;50.992;13.788;2023-02-26T08:51:08;5.00;;;2.13;;
24663;SDS011;12791;50.992;13.788;2023-02-26T08:53:35;4.57;;;2.92;;
24663;SDS011;12791;50.992;13.788;2023-02-26T08:56:05;3.97;;;3.00;;
24663;SDS011;12791;50.992;13.788;2023-02-26T08:58:32;3.97;;;2.30;;
24663;SDS011;12791;50.992;13.788;2023-02-26T09:00:58;6.80;;;3.25;;
24663;SDS011;12791;50.992;13.788;2023-02-26T09:03:25;2.88;;;2.08;;
24663;SDS011;12791;50.992;13.788;2023-02-26T09:05:52;4.65;;;2.50;;
24663;SDS011;12791;50.992;13.788;2023-02-26T09:08:18;7.43;;;2.60;;
24663;SDS011;12791;50.992;13.788;2023-02-26T09:10:46;3.90;;;2.35;;
24663;SDS011;12791;50.992;13.788;2023-02-26T09:13:14;3.38;;;1.60;;
24663;SDS011;12791;50.992;13.788;2023-02-26T09:15:41;4.35;;;2.05;;
24663;SDS011;12791;50.992;13.788;2023-02-26T09:18:07;3.00;;;1.95;;
24663;SDS011;12791;50.992;13.788;2023-02-26T09:20:39;3.58;;;2.13;;
24663;SDS011;12791;50.992;13.788;2023-02-26T09:23:06;4.25;;;1.65;;
24663;SDS011;12791;50.992;13.788;2023-02-26T09:25:32;4.00;;;2.22;;
24663;SDS011;12791;50.992;13.788;2023-02-26T09:27:59;4.30;;;1.90;;
24663;SDS011;12791;50.992;13.788;2023-02-26T09:30:27;6.70;;;2.22;;
24663;SDS011;12791;50.992;13.788;2023-02-26T09:32:54;3.90;;;2.10;;
24663;SDS011;12791;50.992;13.788;2023-02-26T09:35:20;5.55;;;2.53;;
24663;SDS011;12791;50.992;13.788;2023-02-26T09:37:47;2.55;;;2.00;;
24663;SDS011;12791;50.992;13.788;2023-02-26T09:40:20;3.95;;;2.15;;
24663;SDS011;12791;50.992;13.788;2023-02-26T09:42:58;3.05;;;1.88;;
24663;SDS011;12791;50.992;13.788;2023-02-26T09:45:35;3.83;;;1.83;;
24663;SDS011;12791;50.992;13.788;2023-02-26T09:48:04;4.07;;;2.30;;
24663;SDS011;12791;50.992;13.788;2023-02-26T09:50:35;5.65;;;1.85;;
24663;SDS011;12791;50.992;13.788;2023-02-26T09:53:06;2.85;;;1.35;;
24663;SDS011;12791;50.992;13.788;2023-02-26T09:55:40;2.85;;;1.70;;
24663;SDS011;12791;50.992;13.788;2023-02-26T09:58:10;3.33;;;1.48;;
24663;SDS011;12791;50.992;13.788;2023-02-26T10:00:46;4.70;;;1.67;;
24663;SDS011;12791;50.992;13.788;2023-02-26T10:03:20;8.02;;;1.60;;
24663;SDS011;12791;50.992;13.788;2023-02-26T10:05:59;5.60;;;1.70;;
24663;SDS011;12791;50.992;13.788;2023-02-26T10:08:43;2.33;;;1.35;;
24663;SDS011;12791;50.992;13.788;2023-02-26T10:11:25;4.80;;;1.38;;
24663;SDS011;12791;50.992;13.788;2023-02-26T10:13:57;6.65;;;1.95;;
24663;SDS011;12791;50.992;13.788;2023-02-26T10:16:32;4.93;;;1.70;;
24663;SDS011;12791;50.992;13.788;2023-02-26T10:19:04;2.35;;;1.10;;
24663;SDS011;12791;50.992;13.788;2023-02-26T10:21:34;3.40;;;1.30;;
24663;SDS011;12791;50.992;13.788;2023-02-26T10:24:07;2.60;;;1.30;;
24663;SDS011;12791;50.992;13.788;2023-02-26T10:26:38;3.65;;;0.85;;
24663;SDS011;12791;50.992;13.788;2023-02-26T10:29:10;10.02;;;2.65;;
24663;SDS011;12791;50.992;13.788;2023-02-26T10:31:48;2.90;;;1.23;;
24663;SDS011;12791;50.992;13.788;2023-02-26T10:34:24;3.55;;;1.42;;
24663;SDS011;12791;50.992;13.788;2023-02-26T10:36:57;6.20;;;2.15;;
24663;SDS011;12791;50.992;13.788;2023-02-26T10:39:34;3.75;;;1.20;;
24663;SDS011;12791;50.992;13.788;2023-02-26T10:42:05;4.38;;;1.55;;
24663;SDS011;12791;50.992;13.788;2023-02-26T10:44:39;4.28;;;0.85;;
24663;SDS011;12791;50.992;13.788;2023-02-26T10:47:14;4.47;;;1.35;;
24663;SDS011;12791;50.992;13.788;2023-02-26T10:49:50;4.72;;;1.33;;
24663;SDS011;12791;50.992;13.788;2023-02-26T10:52:20;3.28;;;1.60;;
24663;SDS011;12791;50.992;13.788;2023-02-26T10:55:01;5.40;;;1.13;;
24663;SDS011;12791;50.992;13.788;2023-02-26T10:57:33;4.68;;;2.25;;
24663;SDS011;12791;50.992;13.788;2023-02-26T11:00:04;2.05;;;0.75;;
24663;SDS011;12791;50.992;13.788;2023-02-26T11:02:35;3.58;;;0.70;;
24663;SDS011;12791;50.992;13.788;2023-02-26T11:05:05;5.10;;;0.90;;
24663;SDS011;12791;50.992;13.788;2023-02-26T11:07:38;1.60;;;0.82;;
24663;SDS011;12791;50.992;13.788;2023-02-26T11:10:11;5.07;;;1.05;;
24663;SDS011;12791;50.992;13.788;2023-02-26T11:12:40;1.40;;;0.70;;
24663;SDS011;12791;50.992;13.788;2023-02-26T11:15:11;1.45;;;0.70;;
24663;SDS011;12791;50.992;13.788;2023-02-26T11:17:40;3.80;;;0.90;;
24663;SDS011;12791;50.992;13.788;2023-02-26T11:20:13;3.40;;;1.10;;
24663;SDS011;12791;50.992;13.788;2023-02-26T11:22:45;2.25;;;0.80;;
24663;SDS011;12791;50.992;13.788;2023-02-26T11:25:16;4.32;;;1.10;;
24663;SDS011;12791;50.992;13.788;2023-02-26T11:27:45;1.90;;;1.00;;
24663;SDS011;12791;50.992;13.788;2023-02-26T11:30:14;3.78;;;0.90;;
24663;SDS011;12791;50.992;13.788;2023-02-26T11:32:44;2.53;;;0.90;;
24663;SDS011;12791;50.992;13.788;2023-02-26T11:35:14;3.95;;;1.17;;
24663;SDS011;12791;50.992;13.788;2023-02-26T11:37:45;2.13;;;0.73;;
24663;SDS011;12791;50.992;13.788;2023-02-26T11:40:15;5.13;;;1.08;;
24663;SDS011;12791;50.992;13.788;2023-02-26T11:42:46;1.88;;;0.82;;
24663;SDS011;12791;50.992;13.788;2023-02-26T11:45:15;4.38;;;2.08;;
24663;SDS011;12791;50.992;13.788;2023-02-26T11:47:46;5.18;;;1.17;;
24663;SDS011;12791;50.992;13.788;2023-02-26T11:50:18;3.42;;;1.08;;
24663;SDS011;12791;50.992;13.788;2023-02-26T11:52:47;1.75;;;0.80;;
24663;SDS011;12791;50.992;13.788;2023-02-26T11:55:21;4.85;;;1.55;;
24663;SDS011;12791;50.992;13.788;2023-02-26T11:57:53;4.00;;;1.02;;
24663;SDS011;12791;50.992;13.788;2023-02-26T12:00:22;1.42;;;0.80;;
24663;SDS011;12791;50.992;13.788;2023-02-26T12:02:58;8.38;;;1.10;;
24663;SDS011;12791;50.992;13.788;2023-02-26T12:05:26;2.50;;;1.02;;
24663;SDS011;12791;50.992;13.788;2023-02-26T12:07:53;3.67;;;0.70;;
24663;SDS011;12791;50.992;13.788;2023-02-26T12:10:20;1.92;;;0.70;;
24663;SDS011;12791;50.992;13.788;2023-02-26T12:12:56;2.42;;;0.80;;
24663;SDS011;12791;50.992;13.788;2023-02-26T12:15:36;2.55;;;0.57;;
24663;SDS011;12791;50.992;13.788;2023-02-26T12:18:22;3.13;;;0.93;;
24663;SDS011;12791;50.992;13.788;2023-02-26T12:21:04;1.88;;;0.60;;
24663;SDS011;12791;50.992;13.788;2023-02-26T12:26:54;2.50;;;0.80;;
24663;SDS011;12791;50.992;13.788;2023-02-26T12:29:44;0.88;;;0.77;;
24663;SDS011;12791;50.992;13.788;2023-02-26T12:32:25;3.70;;;1.25;;
24663;SDS011;12791;50.992;13.788;2023-02-26T12:37:58;24.58;;;8.50;;
24663;SDS011;12791;50.992;13.788;2023-02-26T12:40:50;6.38;;;2.65;;
24663;SDS011;12791;50.992;13.788;2023-02-26T12:43:38;4.30;;;1.33;;
24663;SDS011;12791;50.992;13.788;2023-02-26T12:46:12;3.13;;;0.70;;
24663;SDS011;12791;50.992;13.788;2023-02-26T12:48:59;4.80;;;0.90;;
24663;SDS011;12791;50.992;13.788;2023-02-26T12:51:58;2.30;;;0.73;;
24663;SDS011;12791;50.992;13.788;2023-02-26T12:54:50;2.75;;;1.10;;
24663;SDS011;12791;50.992;13.788;2023-02-26T12:57:31;2.75;;;1.00;;
24663;SDS011;12791;50.992;13.788;2023-02-26T13:00:38;4.80;;;0.90;;
24663;SDS011;12791;50.992;13.788;2023-02-26T13:06:24;2.50;;;1.10;;
24663;SDS011;12791;50.992;13.788;2023-02-26T13:09:12;3.35;;;1.40;;
24663;SDS011;12791;50.992;13.788;2023-02-26T13:11:49;5.57;;;1.50;;
24663;SDS011;12791;50.992;13.788;2023-02-26T13:14:27;4.68;;;1.73;;
24663;SDS011;12791;50.992;13.788;2023-02-26T13:17:05;5.05;;;1.50;;
24663;SDS011;12791;50.992;13.788;2023-02-26T13:19:39;2.95;;;1.27;;
24663;SDS011;12791;50.992;13.788;2023-02-26T13:22:12;1.95;;;1.05;;
24663;SDS011;12791;50.992;13.788;2023-02-26T13:24:46;5.55;;;1.50;;
24663;SDS011;12791;50.992;13.788;2023-02-26T13:27:18;2.65;;;1.02;;
24663;SDS011;12791;50.992;13.788;2023-02-26T13:29:46;2.55;;;1.42;;
24663;SDS011;12791;50.992;13.788;2023-02-26T13:32:16;3.95;;;0.90;;
24663;SDS011;12791;50.992;13.788;2023-02-26T13:34:47;3.55;;;0.98;;
24663;SDS011;12791;50.992;13.788;2023-02-26T13:37:21;3.20;;;1.17;;
24663;SDS011;12791;50.992;13.788;2023-02-26T13:39:52;2.65;;;1.17;;
24663;SDS011;12791;50.992;13.788;2023-02-26T13:42:32;2.33;;;1.02;;
24663;SDS011;12791;50.992;13.788;2023-02-26T13:45:10;4.85;;;1.10;;
24663;SDS011;12791;50.992;13.788;2023-02-26T13:47:51;2.67;;;1.08;;
24663;SDS011;12791;50.992;13.788;2023-02-26T13:50:29;1.83;;;0.82;;
24663;SDS011;12791;50.992;13.788;2023-02-26T13:53:03;3.47;;;0.77;;
24663;SDS011;12791;50.992;13.788;2023-02-26T13:55:53;1.70;;;0.85;;
24663;SDS011;12791;50.992;13.788;2023-02-26T13:58:33;5.75;;;1.38;;
24663;SDS011;12791;50.992;13.788;2023-02-26T14:01:04;2.95;;;1.05;;
24663;SDS011;12791;50.992;13.788;2023-02-26T14:03:35;4.10;;;1.02;;
24663;SDS011;12791;50.992;13.788;2023-02-26T14:06:07;1.20;;;0.60;;
24663;SDS011;12791;50.992;13.788;2023-02-26T14:12:01;1.60;;;0.70;;
24663;SDS011;12791;50.992;13.788;2023-02-26T14:14:31;1.20;;;1.05;;
24663;SDS011;12791;50.992;13.788;2023-02-26T14:17:17;1.98;;;1.10;;
24663;SDS011;12791;50.992;13.788;2023-02-26T14:23:10;1.88;;;0.90;;
24663;SDS011;12791;50.992;13.788;2023-02-26T14:25:45;2.92;;;0.80;;
24663;SDS011;12791;50.992;13.788;2023-02-26T14:31:06;1.95;;;0.93;;
24663;SDS011;12791;50.992;13.788;2023-02-26T14:33:39;1.33;;;0.82;;
24663;SDS011;12791;50.992;13.788;2023-02-26T14:36:13;1.20;;;0.85;;
24663;SDS011;12791;50.992;13.788;2023-02-26T14:38:43;2.35;;;1.02;;
24663;SDS011;12791;50.992;13.788;2023-02-26T14:41:13;1.60;;;1.30;;
24663;SDS011;12791;50.992;13.788;2023-02-26T14:43:51;1.60;;;0.80;;
24663;SDS011;12791;50.992;13.788;2023-02-26T14:46:24;1.08;;;0.80;;
24663;SDS011;12791;50.992;13.788;2023-02-26T14:48:51;0.88;;;0.80;;
24663;SDS011;12791;50.992;13.788;2023-02-26T14:51:19;3.33;;;0.80;;
24663;SDS011;12791;50.992;13.788;2023-02-26T14:54:00;3.20;;;0.75;;
24663;SDS011;12791;50.992;13.788;2023-02-26T14:56:40;1.63;;;0.90;;
24663;SDS011;12791;50.992;13.788;2023-02-26T15:02:15;3.53;;;1.33;;
24663;SDS011;12791;50.992;13.788;2023-02-26T15:05:02;4.25;;;1.63;;
24663;SDS011;12791;50.992;13.788;2023-02-26T15:07:43;6.13;;;1.63;;
24663;SDS011;12791;50.992;13.788;2023-02-26T15:10:21;5.95;;;1.58;;
24663;SDS011;12791;50.992;13.788;2023-02-26T15:13:01;4.53;;;1.65;;
24663;SDS011;12791;50.992;13.788;2023-02-26T15:15:46;0.93;;;0.57;;
24663;SDS011;12791;50.992;13.788;2023-02-26T15:18:35;1.17;;;0.50;;
24663;SDS011;12791;50.992;13.788;2023-02-26T15:21:14;1.77;;;0.90;;